New Milford, Illinois
Current Conditions -  °F | °C
As of 10:54 PM on Saturday 25 Oct 2014 (Local Time) from KRFD Reporting Station
Clear Clear  
Wind Chill: 50°   Ceiling: Unl
Heat Index: 50°   Visibility: 10mi
Dew Point: 29°   Wind: 8mph
Humidity: 44%   Direction: 330°NNW
Pressure: 30.03"   Gusts: NA
Location:  42.1929°N, 89.0567°W
Report Text: KRFD 260354Z 33007KT 10SM CLR 10/M02 A3003 RMK AO2 SLP168 T01001017
Loading
Personal Weather Stations






























Interactive Weather Map
Tropical Storm Tracking
New forecast layout! Learn more

10-Day Weather Forecast

Advertisements
Track Severe Weather on mobile